createdAt,value
2023-01-13T00:00:00.766Z,41.20
2023-01-13T00:02:27.648Z,38.90
2023-01-13T00:04:54.396Z,36.67
2023-01-13T00:07:21.279Z,37.72
2023-01-13T00:09:48.005Z,36.03
2023-01-13T00:12:14.724Z,34.05
2023-01-13T00:14:41.355Z,33.75
2023-01-13T00:17:07.980Z,33.95
2023-01-13T00:19:34.674Z,34.53
2023-01-13T00:22:01.417Z,34.05
2023-01-13T00:24:28.199Z,34.72
2023-01-13T00:26:54.850Z,33.83
2023-01-13T00:29:22.764Z,35.10
2023-01-13T00:31:49.789Z,35.25
2023-01-13T00:34:16.477Z,34.42
2023-01-13T00:36:43.348Z,35.42
2023-01-13T00:39:10.060Z,34.95
2023-01-13T00:42:06.321Z,34.45
2023-01-13T00:44:33.029Z,33.17
2023-01-13T00:46:59.877Z,36.03
2023-01-13T00:49:26.662Z,34.35
2023-01-13T00:51:53.281Z,34.05
2023-01-13T00:54:19.902Z,33.55
2023-01-13T00:56:46.532Z,33.35
2023-01-13T00:59:13.593Z,32.65
2023-01-13T01:01:41.164Z,34.33
2023-01-13T01:04:08.212Z,33.58
2023-01-13T01:06:34.970Z,32.85
2023-01-13T01:09:01.810Z,33.50
2023-01-13T01:11:29.977Z,33.80
2023-01-13T01:13:58.008Z,34.17
2023-01-13T01:16:25.754Z,33.63
2023-01-13T01:18:53.751Z,33.00
2023-01-13T01:21:21.116Z,32.55
2023-01-13T01:23:47.953Z,33.63
2023-01-13T01:26:16.043Z,34.40
2023-01-13T01:28:43.102Z,35.28
2023-01-13T01:31:14.308Z,34.95
2023-01-13T01:33:41.547Z,34.00
2023-01-13T01:36:09.235Z,33.88
2023-01-13T01:38:35.939Z,33.30
2023-01-13T01:41:02.724Z,32.70
2023-01-13T01:44:06.902Z,32.28
2023-01-13T01:46:33.699Z,32.30
2023-01-13T01:49:03.401Z,31.50
2023-01-13T01:51:31.937Z,31.15
2023-01-13T01:54:00.612Z,32.00
2023-01-13T01:56:27.701Z,34.47
2023-01-13T01:58:54.777Z,32.45
2023-01-13T02:01:21.567Z,31.58
2023-01-13T02:03:54.119Z,33.63
2023-01-13T02:06:20.957Z,33.13
2023-01-13T02:08:48.001Z,33.35
2023-01-13T02:11:47.335Z,31.98
2023-01-13T02:14:14.641Z,31.67
2023-01-13T02:16:48.029Z,32.88
2023-01-13T02:19:17.812Z,34.33
2023-01-13T02:21:56.875Z,35.40
2023-01-13T02:24:54.642Z,33.97
2023-01-13T02:27:44.097Z,31.77
2023-01-13T02:30:35.490Z,34.45
2023-01-13T02:33:21.076Z,33.75
2023-01-13T02:35:59.687Z,35.15
2023-01-13T02:38:35.887Z,33.47
2023-01-13T02:41:27.668Z,33.03
2023-01-13T02:44:07.388Z,32.53
2023-01-13T02:46:43.680Z,34.33
2023-01-13T02:49:12.283Z,33.58
2023-01-13T02:51:39.688Z,33.22
2023-01-13T02:54:15.002Z,34.78
2023-01-13T02:56:44.512Z,34.45
2023-01-13T02:59:12.364Z,33.75
2023-01-13T03:01:39.590Z,35.10
2023-01-13T03:04:13.301Z,35.15
2023-01-13T03:06:55.722Z,33.38
2023-01-13T03:09:24.130Z,31.45
2023-01-13T03:11:57.065Z,30.17
2023-01-13T03:14:35.895Z,31.92
2023-01-13T03:17:11.167Z,33.20
2023-01-13T03:19:53.173Z,32.00
2023-01-13T03:22:27.238Z,32.83
2023-01-13T03:24:54.114Z,31.35
2023-01-13T03:27:33.652Z,32.00
2023-01-13T03:30:03.087Z,32.03
2023-01-13T03:32:33.229Z,34.60
2023-01-13T03:34:59.955Z,33.42
2023-01-13T03:37:29.494Z,30.70
2023-01-13T03:40:02.400Z,30.15
2023-01-13T03:42:31.287Z,29.77
2023-01-13T03:45:02.373Z,30.73
2023-01-13T03:47:33.463Z,31.67
2023-01-13T03:50:09.446Z,32.85
2023-01-13T03:52:42.398Z,30.17
2023-01-13T03:55:09.152Z,31.15
2023-01-13T03:57:38.948Z,30.63
2023-01-13T04:00:09.504Z,31.45
2023-01-13T04:02:56.795Z,31.05
2023-01-13T04:07:50.703Z,29.05
2023-01-13T04:10:20.241Z,29.75
2023-01-13T04:13:05.127Z,28.27
2023-01-13T04:15:34.267Z,35.45
2023-01-13T04:18:18.256Z,31.77
2023-01-13T04:20:46.064Z,31.92
2023-01-13T04:23:13.739Z,33.88
2023-01-13T04:25:41.252Z,33.63
2023-01-13T04:28:08.470Z,34.33
2023-01-13T04:30:35.475Z,37.13
2023-01-13T04:33:04.133Z,36.75
2023-01-13T04:35:32.030Z,37.72
2023-01-13T04:38:07.257Z,35.38
2023-01-13T04:40:34.122Z,36.28
2023-01-13T04:43:00.858Z,34.97
2023-01-13T04:45:27.636Z,36.72
2023-01-13T04:47:54.409Z,34.25
2023-01-13T04:50:22.647Z,33.15
2023-01-13T04:52:50.319Z,32.33
2023-01-13T04:55:17.547Z,35.33
2023-01-13T04:57:44.433Z,34.17
2023-01-13T05:00:13.647Z,36.28
2023-01-13T05:02:42.434Z,34.15
2023-01-13T05:05:09.710Z,32.00
2023-01-13T05:07:36.390Z,33.20
2023-01-13T05:10:03.392Z,32.92
2023-01-13T05:12:49.062Z,34.53
2023-01-13T05:15:34.519Z,32.03
2023-01-13T05:18:01.749Z,35.00
2023-01-13T05:20:28.405Z,35.92
2023-01-13T05:23:13.578Z,32.90
2023-01-13T05:25:43.503Z,31.10
2023-01-13T05:28:10.942Z,31.80
2023-01-13T05:30:38.741Z,34.00
2023-01-13T05:33:05.383Z,33.50
2023-01-13T05:35:32.078Z,36.03
2023-01-13T05:37:58.789Z,33.40
2023-01-13T05:40:44.180Z,34.53
2023-01-13T05:43:21.198Z,32.97
2023-01-13T05:45:47.976Z,33.42
2023-01-13T05:48:15.386Z,31.88
2023-01-13T05:50:42.349Z,37.15
2023-01-13T05:53:09.097Z,33.70
2023-01-13T05:55:39.092Z,33.60
2023-01-13T05:58:06.350Z,33.63
2023-01-13T06:00:33.174Z,33.55
2023-01-13T06:02:59.948Z,33.28
2023-01-13T06:05:26.781Z,33.92
2023-01-13T06:07:56.206Z,34.90
2023-01-13T06:10:22.960Z,36.47
2023-01-13T06:12:49.747Z,34.72
2023-01-13T06:15:16.485Z,37.22
2023-01-13T06:17:43.272Z,36.22
2023-01-13T06:20:13.504Z,35.83
2023-01-13T06:22:42.824Z,36.67
2023-01-13T06:25:29.876Z,47.05
2023-01-13T06:27:59.030Z,50.47
2023-01-13T06:30:28.098Z,52.50
2023-01-13T06:32:57.305Z,46.08
2023-01-13T06:35:25.627Z,54.83
2023-01-13T06:37:53.742Z,58.65
2023-01-13T06:40:21.679Z,45.97
2023-01-13T06:43:07.478Z,38.40
2023-01-13T06:45:34.765Z,35.10
2023-01-13T06:48:01.495Z,32.00
2023-01-13T06:50:28.954Z,33.30
2023-01-13T06:52:56.088Z,33.38
2023-01-13T06:55:22.831Z,35.90
2023-01-13T06:57:53.933Z,34.55
2023-01-13T07:00:21.841Z,35.38
2023-01-13T07:02:48.795Z,34.00
2023-01-13T07:05:16.017Z,33.80
2023-01-13T07:07:43.145Z,34.83
2023-01-13T07:10:14.088Z,32.97
2023-01-13T07:12:59.418Z,33.95
2023-01-13T07:15:26.946Z,35.40
2023-01-13T07:17:53.919Z,37.92
2023-01-13T07:20:20.605Z,34.67
2023-01-13T07:22:53.488Z,36.42
2023-01-13T07:25:20.327Z,37.15
2023-01-13T07:27:47.237Z,39.53
2023-01-13T07:30:14.076Z,38.13
2023-01-13T07:32:40.791Z,37.33
2023-01-13T07:35:07.835Z,38.83
2023-01-13T07:37:36.413Z,38.35
2023-01-13T07:40:05.233Z,36.17
2023-01-13T07:42:56.360Z,36.15
2023-01-13T07:45:25.374Z,31.75
2023-01-13T07:47:53.072Z,30.60
2023-01-13T07:50:21.770Z,32.95
2023-01-13T07:52:49.052Z,33.30
2023-01-13T07:55:18.162Z,35.50
2023-01-13T07:57:45.034Z,35.83
2023-01-13T08:00:13.020Z,36.15
2023-01-13T08:02:40.036Z,37.35
2023-01-13T08:05:07.466Z,36.08
2023-01-13T08:07:34.804Z,40.25
2023-01-13T08:10:02.014Z,40.40
2023-01-13T08:12:52.977Z,37.83
2023-01-13T08:15:22.604Z,38.47
2023-01-13T08:17:49.800Z,39.95
2023-01-13T08:20:16.639Z,37.88
2023-01-13T08:22:44.379Z,36.33
2023-01-13T08:25:12.345Z,39.35
2023-01-13T08:27:40.598Z,39.42
2023-01-13T08:30:07.649Z,36.28
2023-01-13T08:32:34.365Z,36.00
2023-01-13T08:35:01.076Z,37.58
2023-01-13T08:37:27.996Z,41.53
2023-01-13T08:39:54.864Z,47.00
2023-01-13T08:42:21.975Z,42.95
2023-01-13T08:44:49.488Z,47.80
2023-01-13T08:47:16.838Z,37.45
2023-01-13T08:49:45.756Z,38.60
2023-01-13T08:52:12.689Z,35.17
2023-01-13T08:54:39.613Z,37.72
2023-01-13T08:57:07.027Z,36.53
2023-01-13T08:59:34.361Z,39.97
2023-01-13T09:02:02.165Z,36.15
2023-01-13T09:04:29.622Z,36.13
2023-01-13T09:06:56.638Z,34.25
2023-01-13T09:09:23.967Z,35.15
2023-01-13T09:12:10.145Z,33.58
2023-01-13T09:14:37.810Z,34.75
2023-01-13T09:17:04.664Z,39.03
2023-01-13T09:19:31.366Z,45.30
2023-01-13T09:21:58.208Z,37.85
2023-01-13T09:24:25.501Z,39.80
2023-01-13T09:26:52.649Z,41.25
2023-01-13T09:29:19.320Z,40.92
2023-01-13T09:31:46.660Z,40.00
2023-01-13T09:34:33.597Z,40.10
2023-01-13T09:37:00.718Z,39.00
2023-01-13T09:39:27.552Z,39.65
2023-01-13T09:42:14.845Z,46.75
2023-01-13T09:44:45.847Z,39.53
2023-01-13T09:47:20.062Z,39.10
2023-01-13T09:49:47.519Z,40.80
2023-01-13T09:52:19.326Z,40.42
2023-01-13T09:54:49.706Z,40.60
2023-01-13T09:57:16.990Z,40.55
2023-01-13T09:59:43.959Z,42.42
2023-01-13T10:02:29.534Z,40.85
2023-01-13T10:05:03.451Z,43.03
2023-01-13T10:07:31.835Z,42.92
2023-01-13T10:09:59.496Z,44.88
2023-01-13T10:12:44.841Z,45.30
2023-01-13T10:15:16.779Z,45.42
2023-01-13T10:18:12.971Z,44.05
2023-01-13T10:20:45.710Z,43.25
2023-01-13T10:23:34.428Z,44.05
2023-01-13T10:26:30.851Z,43.88
2023-01-13T10:28:58.081Z,43.15
2023-01-13T10:31:25.597Z,49.72
2023-01-13T10:34:04.071Z,48.60
2023-01-13T10:36:31.018Z,43.80
2023-01-13T10:39:16.168Z,44.10
2023-01-13T10:41:44.487Z,43.90
2023-01-13T10:44:20.312Z,43.63
2023-01-13T10:46:55.853Z,46.60
2023-01-13T10:49:28.382Z,44.63
2023-01-13T10:51:55.493Z,43.33
2023-01-13T10:54:24.357Z,43.03
2023-01-13T10:57:11.464Z,42.92
2023-01-13T10:59:38.524Z,44.63
2023-01-13T11:02:24.291Z,43.05
2023-01-13T11:04:55.218Z,40.78
2023-01-13T11:07:36.079Z,48.95
2023-01-13T11:10:21.304Z,41.53
2023-01-13T11:12:58.644Z,43.00
2023-01-13T11:15:34.183Z,49.30
2023-01-13T11:18:05.046Z,43.75
2023-01-13T11:20:38.583Z,44.28
2023-01-13T11:23:12.335Z,42.90
2023-01-13T11:25:43.902Z,41.90
2023-01-13T11:28:10.529Z,41.10
2023-01-13T11:30:40.183Z,42.05
2023-01-13T11:33:10.149Z,43.15
2023-01-13T11:35:43.084Z,41.70
2023-01-13T11:38:15.498Z,42.15
2023-01-13T11:40:49.391Z,40.50
2023-01-13T11:45:49.418Z,38.88
2023-01-13T11:48:17.771Z,39.47
2023-01-13T11:51:02.901Z,39.97
2023-01-13T11:53:42.504Z,39.72
2023-01-13T11:56:24.433Z,38.00
2023-01-13T11:59:10.006Z,36.60
2023-01-13T12:01:37.024Z,37.50
2023-01-13T12:04:09.925Z,38.05
2023-01-13T12:06:40.256Z,38.17
2023-01-13T12:09:16.161Z,39.03
2023-01-13T12:12:15.527Z,37.70
2023-01-13T12:14:42.232Z,36.67
2023-01-13T12:17:14.352Z,36.25
2023-01-13T12:19:44.159Z,39.20
2023-01-13T12:22:10.867Z,38.80
2023-01-13T12:24:53.305Z,39.08
2023-01-13T12:27:26.965Z,40.60
2023-01-13T12:29:57.146Z,41.10
2023-01-13T12:32:33.105Z,39.55
2023-01-13T12:35:02.616Z,41.42
2023-01-13T12:37:35.561Z,41.13
2023-01-13T12:40:12.071Z,41.92
2023-01-13T12:43:04.073Z,41.17
2023-01-13T12:45:32.333Z,40.70
2023-01-13T12:47:59.895Z,41.05
2023-01-13T12:50:27.178Z,40.53
2023-01-13T12:52:58.470Z,39.78
2023-01-13T12:55:25.215Z,41.10
2023-01-13T12:57:56.127Z,40.70
2023-01-13T13:00:23.363Z,42.05
2023-01-13T13:03:22.328Z,41.17
2023-01-13T13:06:07.608Z,39.80
2023-01-13T13:08:37.027Z,40.55
2023-01-13T13:11:32.777Z,39.88
2023-01-13T13:14:00.333Z,38.80
2023-01-13T13:16:27.313Z,37.83
2023-01-13T13:19:14.127Z,38.95
2023-01-13T13:21:59.474Z,39.83
2023-01-13T13:24:27.883Z,38.25
2023-01-13T13:26:54.944Z,36.53
2023-01-13T13:29:24.696Z,39.55
2023-01-13T13:32:10.437Z,37.30
2023-01-13T13:34:40.263Z,37.72
2023-01-13T13:37:27.268Z,37.42
2023-01-13T13:40:13.154Z,37.55
2023-01-13T13:43:02.542Z,39.53
2023-01-13T13:45:47.884Z,38.35
2023-01-13T13:48:22.667Z,38.25
2023-01-13T13:51:12.595Z,38.42
2023-01-13T13:53:41.812Z,38.67
2023-01-13T13:56:16.552Z,38.50
2023-01-13T13:58:43.917Z,38.72
2023-01-13T14:01:21.854Z,39.22
2023-01-13T14:04:02.679Z,39.25
2023-01-13T14:06:30.003Z,49.38
2023-01-13T14:08:56.646Z,49.55
2023-01-13T14:11:33.518Z,38.08
2023-01-13T14:14:01.119Z,39.85
2023-01-13T14:16:28.019Z,38.83
2023-01-13T14:18:54.778Z,38.10
2023-01-13T14:21:30.949Z,36.40
2023-01-13T14:24:05.559Z,38.13
2023-01-13T14:26:32.535Z,37.83
2023-01-13T14:29:00.897Z,37.60
2023-01-13T14:31:28.203Z,36.72
2023-01-13T14:33:56.995Z,34.53
2023-01-13T14:36:24.883Z,37.85
2023-01-13T14:39:03.727Z,36.40
2023-01-13T14:41:30.523Z,35.63
2023-01-13T14:43:59.492Z,36.88
2023-01-13T14:46:36.622Z,36.83
2023-01-13T14:49:04.042Z,35.67
2023-01-13T14:51:31.172Z,34.20
2023-01-13T14:53:59.292Z,36.42
2023-01-13T14:56:42.689Z,36.70
2023-01-13T14:59:28.628Z,38.27
2023-01-13T15:01:55.688Z,39.55
2023-01-13T15:04:26.261Z,38.92
2023-01-13T15:06:55.018Z,40.47
2023-01-13T15:09:36.865Z,38.00
2023-01-13T15:12:15.563Z,38.95
2023-01-13T15:14:42.223Z,38.38
2023-01-13T15:17:14.214Z,36.97
2023-01-13T15:19:41.255Z,37.08
2023-01-13T15:22:07.919Z,36.92
2023-01-13T15:24:34.588Z,38.58
2023-01-13T15:27:16.654Z,37.95
2023-01-13T15:29:43.337Z,37.67
2023-01-13T15:32:16.910Z,36.40
2023-01-13T15:34:43.607Z,38.58
2023-01-13T15:37:10.513Z,35.35
2023-01-13T15:39:37.204Z,37.10
2023-01-13T15:42:22.323Z,34.88
2023-01-13T15:45:07.565Z,36.13
2023-01-13T15:47:34.356Z,35.38
2023-01-13T15:50:00.992Z,43.90
2023-01-13T15:52:28.191Z,44.15
2023-01-13T15:54:54.999Z,41.72
2023-01-13T15:57:27.474Z,41.97
2023-01-13T15:59:58.442Z,40.17
2023-01-13T16:02:25.513Z,40.30
2023-01-13T16:04:54.089Z,43.38
2023-01-13T16:07:22.600Z,51.47
2023-01-13T16:09:49.714Z,43.55
2023-01-13T16:12:16.733Z,40.15
2023-01-13T16:14:43.779Z,36.92
2023-01-13T16:17:15.545Z,37.13
2023-01-13T16:19:42.517Z,38.10
2023-01-13T16:22:10.616Z,47.90
2023-01-13T16:24:37.484Z,42.85
2023-01-13T16:27:13.259Z,49.83
2023-01-13T16:29:39.943Z,43.58
2023-01-13T16:32:06.748Z,40.50
2023-01-13T16:34:33.721Z,41.88
2023-01-13T16:37:00.828Z,41.35
2023-01-13T16:39:27.839Z,42.63
2023-01-13T16:41:55.042Z,42.45
2023-01-13T16:44:21.706Z,59.45
2023-01-13T16:46:48.758Z,44.08
2023-01-13T16:49:16.300Z,44.45
2023-01-13T16:51:43.591Z,44.47
2023-01-13T16:54:10.493Z,45.58
2023-01-13T16:56:38.312Z,43.95
2023-01-13T16:59:10.689Z,47.67
2023-01-13T17:01:39.248Z,44.92
2023-01-13T17:04:06.334Z,45.67
2023-01-13T17:06:36.662Z,46.88
2023-01-13T17:09:07.513Z,47.72
2023-01-13T17:11:34.357Z,47.40
2023-01-13T17:14:01.345Z,44.83
2023-01-13T17:16:45.855Z,46.42
2023-01-13T17:19:13.040Z,45.28
2023-01-13T17:21:40.385Z,49.13
2023-01-13T17:24:08.004Z,54.45
2023-01-13T17:26:37.206Z,51.13
2023-01-13T17:29:06.130Z,49.03
2023-01-13T17:31:34.193Z,47.25
2023-01-13T17:34:02.212Z,53.22
2023-01-13T17:36:29.088Z,42.20
2023-01-13T17:38:56.275Z,35.97
2023-01-13T17:41:23.700Z,36.17
2023-01-13T17:43:50.685Z,36.72
2023-01-13T17:46:19.139Z,35.10
2023-01-13T17:48:47.344Z,35.15
2023-01-13T17:51:16.105Z,39.22
2023-01-13T17:53:44.172Z,39.47
2023-01-13T17:56:11.980Z,43.20
2023-01-13T17:58:40.170Z,43.20
2023-01-13T18:01:15.208Z,38.25
2023-01-13T18:03:42.184Z,39.65
2023-01-13T18:06:11.374Z,46.10
2023-01-13T18:08:38.115Z,61.85
2023-01-13T18:11:05.147Z,48.58
2023-01-13T18:13:33.425Z,52.40
2023-01-13T18:16:02.020Z,54.35
2023-01-13T18:18:28.898Z,60.42
2023-01-13T18:21:14.514Z,58.40
2023-01-13T18:23:59.591Z,62.30
2023-01-13T18:26:46.493Z,63.63
2023-01-13T18:29:13.243Z,60.83
2023-01-13T18:31:39.946Z,58.65
2023-01-13T18:34:06.647Z,62.28
2023-01-13T18:36:33.267Z,62.45
2023-01-13T18:39:00.525Z,51.50
2023-01-13T18:41:46.139Z,52.55
2023-01-13T18:44:13.304Z,53.65
2023-01-13T18:46:40.383Z,56.78
2023-01-13T18:49:07.118Z,58.95
2023-01-13T18:51:33.764Z,58.53
2023-01-13T18:54:00.969Z,57.53
2023-01-13T18:56:27.873Z,52.75
2023-01-13T18:58:54.953Z,46.78
2023-01-13T19:01:22.993Z,52.55
2023-01-13T19:03:56.461Z,53.20
2023-01-13T19:06:25.727Z,55.92
2023-01-13T19:08:55.819Z,56.13
2023-01-13T19:11:23.183Z,50.22
2023-01-13T19:13:50.984Z,51.20
2023-01-13T19:16:18.213Z,53.83
2023-01-13T19:18:44.864Z,54.72
2023-01-13T19:21:11.487Z,50.65
2023-01-13T19:23:38.257Z,43.20
2023-01-13T19:26:06.733Z,44.30
2023-01-13T19:28:33.698Z,39.10
2023-01-13T19:31:01.380Z,41.38
2023-01-13T19:33:29.594Z,43.55
2023-01-13T19:35:56.460Z,47.55
2023-01-13T19:38:24.201Z,56.40
2023-01-13T19:41:01.461Z,48.38
2023-01-13T19:43:47.329Z,36.55
2023-01-13T19:46:14.253Z,37.63
2023-01-13T19:48:42.983Z,42.10
2023-01-13T19:51:10.458Z,52.08
2023-01-13T19:53:39.355Z,50.55
2023-01-13T19:56:06.205Z,55.08
2023-01-13T19:58:33.450Z,51.05
2023-01-13T20:01:04.101Z,49.85
2023-01-13T20:03:35.819Z,47.70
2023-01-13T20:06:08.943Z,47.70
2023-01-13T20:08:35.739Z,46.37
2023-01-13T20:11:21.323Z,46.22
2023-01-13T20:13:48.561Z,44.83
2023-01-13T20:16:15.502Z,47.28
2023-01-13T20:18:42.202Z,46.22
2023-01-13T20:21:09.139Z,46.10
2023-01-13T20:23:36.144Z,46.58
2023-01-13T20:26:07.547Z,47.53
2023-01-13T20:28:37.356Z,53.60
2023-01-13T20:31:11.315Z,45.53
2023-01-13T20:33:38.894Z,46.45
2023-01-13T20:36:06.296Z,46.38
2023-01-13T20:38:39.280Z,43.85
2023-01-13T20:41:25.266Z,42.95
2023-01-13T20:43:52.610Z,47.75
2023-01-13T20:46:19.801Z,44.13
2023-01-13T20:48:46.708Z,46.60
2023-01-13T20:51:13.472Z,46.08
2023-01-13T20:53:41.089Z,52.15
2023-01-13T20:56:08.686Z,52.70
2023-01-13T20:58:37.586Z,53.70
2023-01-13T21:01:04.856Z,51.35
2023-01-13T21:03:31.968Z,48.80
2023-01-13T21:05:58.850Z,45.60
2023-01-13T21:08:25.853Z,50.20
2023-01-13T21:10:58.972Z,48.63
2023-01-13T21:13:44.372Z,48.43
2023-01-13T21:16:12.461Z,54.75
2023-01-13T21:18:57.706Z,53.20
2023-01-13T21:21:24.458Z,47.55
2023-01-13T21:23:54.123Z,47.05
2023-01-13T21:26:22.186Z,45.97
2023-01-13T21:28:49.730Z,45.50
2023-01-13T21:31:17.206Z,45.45
2023-01-13T21:33:45.133Z,46.95
2023-01-13T21:36:13.034Z,45.05
2023-01-13T21:38:40.152Z,50.10
2023-01-13T21:41:08.396Z,49.20
2023-01-13T21:43:56.604Z,48.38
2023-01-13T21:46:42.137Z,45.78
2023-01-13T21:49:09.019Z,42.33
2023-01-13T21:51:36.137Z,41.90
2023-01-13T21:54:03.022Z,37.03
2023-01-13T21:56:29.776Z,34.65
2023-01-13T21:58:56.812Z,44.03
2023-01-13T22:01:24.264Z,45.72
2023-01-13T22:04:09.719Z,47.35
2023-01-13T22:06:36.517Z,49.55
2023-01-13T22:09:09.951Z,48.75
2023-01-13T22:11:38.922Z,51.78
2023-01-13T22:14:06.825Z,50.38
2023-01-13T22:16:39.012Z,46.88
2023-01-13T22:19:06.178Z,51.15
2023-01-13T22:21:32.992Z,53.20
2023-01-13T22:24:00.134Z,49.60
2023-01-13T22:26:27.419Z,54.63
2023-01-13T22:28:54.151Z,46.65
2023-01-13T22:31:23.580Z,44.70
2023-01-13T22:33:54.097Z,45.97
2023-01-13T22:36:21.276Z,44.88
2023-01-13T22:38:48.164Z,42.55
2023-01-13T22:41:14.951Z,42.13
2023-01-13T22:43:42.438Z,41.85
2023-01-13T22:46:11.539Z,39.70
2023-01-13T22:48:39.140Z,41.75
2023-01-13T22:51:07.971Z,41.50
2023-01-13T22:53:35.263Z,41.50
2023-01-13T22:56:02.536Z,43.13
2023-01-13T22:58:29.861Z,44.55
2023-01-13T23:00:57.149Z,44.63
2023-01-13T23:03:24.266Z,46.78
2023-01-13T23:05:55.575Z,43.88
2023-01-13T23:08:22.305Z,46.42
2023-01-13T23:10:49.733Z,51.10
2023-01-13T23:13:16.757Z,51.65
2023-01-13T23:15:43.546Z,45.70
2023-01-13T23:18:10.316Z,47.17
2023-01-13T23:20:37.166Z,46.40
2023-01-13T23:23:05.008Z,47.20
2023-01-13T23:25:31.730Z,46.90
2023-01-13T23:27:58.472Z,46.08
2023-01-13T23:30:25.301Z,43.88
2023-01-13T23:32:55.350Z,43.55
2023-01-13T23:35:22.047Z,40.50
2023-01-13T23:37:49.087Z,40.72
2023-01-13T23:40:17.696Z,40.08
2023-01-13T23:42:44.735Z,41.50
2023-01-13T23:45:11.640Z,41.95
2023-01-13T23:47:38.478Z,41.75
2023-01-13T23:50:05.740Z,40.63
2023-01-13T23:52:33.737Z,45.67
2023-01-13T23:55:00.657Z,43.88
2023-01-13T23:57:27.434Z,44.55
2023-01-13T23:59:54.199Z,41.67
